KLWD

Lamoni Municipal Airport

Lamoni, Iowa, USA
METAR KLWD 240153Z AUTO 13005KT 10SM CLR 26/18 A3007 RMK AO2 SLP176 T02560178
Observed Flight Rules
May-24 @ 01:53 UTC (8 minutes ago) Visual Flight Rules
Wind Visibility Clouds
130° at 5 knots 10 miles
  • Clear skies
Temperatures Readings
Current 26°C / 79°F
Dewpoint 18°C / 64°F
Humidity 61%
Altimeter 30.07" Hg
Pressure 1017.6 hPa
Elevation 346
METAR KLWD 240153Z AUTO 13005KT 10SM CLR 26/18 A3007 RMK AO2 SLP176 T02560178
Observed Flight Rules
May-24 @ 01:53 UTC
(8 minutes ago)
VFR
Wind Visibility
130° at 5 knots 10 miles
Clouds
  • Clear skies
Temperature Dewpoint
26°C / 79°F 18°C / 64°F
Humidity Altimeter Pressure
61% 30.07" Hg 1017.6 hPa